sim
Sign-in with your pilot id or email,
or register
Callsign
Passwort

Schedule Details

Flight Number: DLH2481
Departure: London Heathrow Airport (EGLL) at 20:15
Arrival: Munich Airport (EDDM) at 22:00
Route: Lufthansa Passenger Schedule. Enter filed route here before submitting Pirep.

Weather Information
Getting current METAR information for EGLL 192050Z AUTO 05008KT 020V080 9999 NCD 18/10 Q1018
Getting current METAR information for EDDM 192050Z VRB01KT CAVOK 11/10 Q1018 NOSIG

Schedule Frequency

Route Map